createdAt,value
2018-07-19T00:02:54.840Z,78.30
2018-07-19T00:07:48.098Z,78.60
2018-07-19T00:12:41.349Z,80.10
2018-07-19T00:17:34.837Z,79.80
2018-07-19T00:22:28.217Z,80.80
2018-07-19T00:27:21.457Z,81.30
2018-07-19T00:37:07.986Z,79.90
2018-07-19T00:42:01.264Z,78.50
2018-07-19T00:46:54.519Z,78.20
2018-07-19T00:51:47.763Z,79.00
2018-07-19T00:56:41.057Z,79.00
2018-07-19T01:01:34.324Z,79.60
2018-07-19T01:06:27.643Z,78.90
2018-07-19T01:11:20.982Z,79.30
2018-07-19T01:16:14.203Z,79.30
2018-07-19T01:21:07.465Z,78.90
2018-07-19T01:26:00.673Z,79.10
2018-07-19T01:30:53.918Z,78.80
2018-07-19T01:35:47.152Z,78.60
2018-07-19T01:40:40.387Z,78.80
2018-07-19T01:45:33.627Z,79.90
2018-07-19T01:50:26.890Z,80.80
2018-07-19T01:55:20.168Z,81.10
2018-07-19T02:00:13.477Z,83.80
2018-07-19T02:05:06.759Z,82.90
2018-07-19T02:10:00.015Z,82.10
2018-07-19T02:14:53.275Z,83.40
2018-07-19T02:19:46.582Z,82.60
2018-07-19T02:24:39.837Z,83.10
2018-07-19T02:29:33.209Z,83.90
2018-07-19T02:34:26.497Z,84.50
2018-07-19T02:39:19.817Z,85.00
2018-07-19T02:44:13.837Z,84.50
2018-07-19T02:49:07.421Z,84.70
2018-07-19T02:54:00.655Z,85.40
2018-07-19T03:03:47.082Z,87.10
2018-07-19T03:08:40.404Z,87.50
2018-07-19T03:13:33.650Z,88.80
2018-07-19T03:18:26.919Z,88.50
2018-07-19T03:23:20.166Z,88.70
2018-07-19T03:28:13.430Z,90.00
2018-07-19T03:38:00.071Z,90.40
2018-07-19T03:42:53.444Z,91.00
2018-07-19T03:47:46.689Z,91.30
2018-07-19T03:57:33.131Z,92.10
2018-07-19T04:02:26.416Z,92.70
2018-07-19T04:07:19.659Z,92.90
2018-07-19T04:12:12.933Z,93.00
2018-07-19T04:17:06.208Z,92.80
2018-07-19T04:21:59.469Z,92.60
2018-07-19T04:26:52.751Z,92.20
2018-07-19T04:31:45.990Z,91.80
2018-07-19T04:36:39.209Z,91.50
2018-07-19T04:41:32.479Z,91.10
2018-07-19T04:46:25.709Z,90.90
2018-07-19T04:51:18.956Z,90.50
2018-07-19T04:56:12.210Z,90.30
2018-07-19T05:01:05.539Z,90.00
2018-07-19T05:05:58.781Z,88.50
2018-07-19T05:15:45.133Z,83.10
2018-07-19T05:20:38.338Z,77.60
2018-07-19T05:25:31.607Z,73.90
2018-07-19T05:30:24.873Z,70.90
2018-07-19T05:35:18.106Z,67.90
2018-07-19T05:40:11.377Z,66.50
2018-07-19T05:45:04.819Z,66.10
2018-07-19T05:49:58.078Z,64.80
2018-07-19T05:54:51.321Z,62.30
2018-07-19T05:59:44.573Z,60.90
2018-07-19T06:04:38.447Z,60.70
2018-07-19T06:09:31.736Z,59.50
2018-07-19T06:14:25.013Z,58.90
2018-07-19T06:19:18.261Z,59.20
2018-07-19T06:24:11.519Z,59.60
2018-07-19T06:29:04.775Z,58.60
2018-07-19T06:33:58.032Z,58.20
2018-07-19T06:48:37.696Z,57.10
2018-07-19T06:53:30.991Z,58.30
2018-07-19T06:58:24.246Z,57.80
2018-07-19T07:03:17.570Z,58.70
2018-07-19T07:13:03.991Z,62.20
2018-07-19T07:17:57.261Z,62.70
2018-07-19T07:22:50.794Z,62.60
2018-07-19T07:32:37.293Z,59.60
2018-07-19T07:37:30.521Z,57.30
2018-07-19T07:42:23.809Z,57.20
2018-07-19T07:47:17.059Z,55.80
2018-07-19T07:52:10.335Z,53.80
2018-07-19T07:57:03.588Z,51.50
2018-07-19T08:01:56.901Z,53.00
2018-07-19T08:06:50.236Z,50.60
2018-07-19T08:16:36.694Z,52.50
2018-07-19T08:21:29.935Z,51.00
2018-07-19T08:26:23.247Z,46.30
2018-07-19T08:36:10.447Z,44.90
2018-07-19T08:41:03.699Z,43.50
2018-07-19T08:45:56.930Z,45.80
2018-07-19T08:50:50.237Z,46.50
2018-07-19T08:55:43.462Z,46.90
2018-07-19T09:00:36.723Z,43.20
2018-07-19T09:05:30.031Z,41.00
2018-07-19T09:10:23.274Z,40.00
2018-07-19T09:15:16.544Z,42.00
2018-07-19T09:20:09.826Z,39.70
2018-07-19T09:25:03.135Z,39.50
2018-07-19T09:29:56.393Z,39.80
2018-07-19T09:34:49.841Z,38.60
2018-07-19T09:39:43.076Z,38.10
2018-07-19T09:44:36.320Z,38.40
2018-07-19T09:49:29.538Z,41.00
2018-07-19T09:54:39.998Z,39.00
2018-07-19T09:59:33.283Z,39.00
2018-07-19T10:04:26.493Z,34.90
2018-07-19T10:09:19.859Z,32.50
2018-07-19T10:14:13.155Z,34.00
2018-07-19T10:19:06.426Z,32.50
2018-07-19T10:23:59.717Z,34.30
2018-07-19T10:28:52.960Z,34.40
2018-07-19T10:33:46.235Z,33.60
2018-07-19T10:38:39.510Z,35.50
2018-07-19T10:43:32.823Z,35.20
2018-07-19T10:48:26.129Z,34.50
2018-07-19T10:53:19.633Z,37.10
2018-07-19T10:58:12.887Z,37.40
2018-07-19T11:03:06.465Z,36.30
2018-07-19T11:07:59.744Z,35.40
2018-07-19T11:12:52.945Z,34.50
2018-07-19T11:17:46.190Z,35.60
2018-07-19T11:22:39.469Z,36.40
2018-07-19T11:27:32.707Z,34.40
2018-07-19T11:32:25.905Z,35.00
2018-07-19T11:37:19.224Z,33.90
2018-07-19T11:51:59.007Z,36.50
2018-07-19T11:56:52.238Z,37.20
2018-07-19T12:01:45.516Z,37.40
2018-07-19T12:06:38.815Z,36.50
2018-07-19T12:11:32.030Z,34.70
2018-07-19T12:21:18.583Z,34.80
2018-07-19T12:26:11.819Z,36.00
2018-07-19T12:31:05.095Z,35.90
2018-07-19T12:35:58.377Z,36.20
2018-07-19T12:40:51.640Z,36.00
2018-07-19T12:45:44.890Z,35.80
2018-07-19T12:50:38.135Z,35.10
2018-07-19T12:55:31.362Z,34.60
2018-07-19T13:00:24.594Z,34.60
2018-07-19T13:10:11.265Z,33.50
2018-07-19T13:15:06.112Z,34.50
2018-07-19T13:19:59.311Z,34.50
2018-07-19T13:24:52.621Z,33.60
2018-07-19T13:29:45.850Z,33.80
2018-07-19T13:34:39.107Z,34.40
2018-07-19T13:39:32.491Z,34.10
2018-07-19T13:44:25.855Z,34.70
2018-07-19T13:49:19.165Z,34.00
2018-07-19T13:54:19.339Z,33.30
2018-07-19T13:59:13.201Z,33.60
2018-07-19T14:04:06.916Z,34.40
2018-07-19T14:09:00.202Z,34.60
2018-07-19T14:13:53.424Z,33.80
2018-07-19T14:18:46.671Z,33.90
2018-07-19T14:23:39.902Z,33.00
2018-07-19T14:28:33.139Z,33.00
2018-07-19T14:33:26.365Z,33.40
2018-07-19T14:38:19.545Z,33.90
2018-07-19T14:43:12.780Z,33.60
2018-07-19T14:48:06.067Z,33.80
2018-07-19T14:57:52.553Z,34.50
2018-07-19T15:02:45.812Z,33.70
2018-07-19T15:07:39.042Z,33.80
2018-07-19T15:12:32.297Z,33.40
2018-07-19T15:17:25.546Z,32.30
2018-07-19T15:22:18.797Z,32.30
2018-07-19T15:27:12.400Z,32.10
2018-07-19T15:32:05.716Z,32.10
2018-07-19T15:36:58.989Z,33.40
2018-07-19T15:41:52.216Z,33.40
2018-07-19T15:46:45.461Z,32.80
2018-07-19T15:51:38.723Z,33.10
2018-07-19T15:56:31.957Z,33.30
2018-07-19T16:01:25.271Z,33.80
2018-07-19T16:06:18.593Z,33.80
2018-07-19T16:11:11.806Z,33.90
2018-07-19T16:16:05.161Z,33.80
2018-07-19T16:20:58.403Z,33.50
2018-07-19T16:30:44.794Z,34.10
2018-07-19T16:35:38.014Z,34.30
2018-07-19T16:45:24.432Z,34.70
2018-07-19T16:50:17.701Z,35.00
2018-07-19T16:55:10.937Z,35.70
2018-07-19T17:00:05.205Z,36.40
2018-07-19T17:09:51.602Z,37.30
2018-07-19T17:14:44.844Z,37.40
2018-07-19T17:19:38.080Z,37.30
2018-07-19T17:24:31.347Z,37.10
2018-07-19T17:29:24.548Z,37.80
2018-07-19T17:34:17.908Z,37.70
2018-07-19T17:39:12.549Z,37.00
2018-07-19T17:44:05.851Z,36.80
2018-07-19T17:48:59.097Z,37.00
2018-07-19T17:53:52.304Z,37.00
2018-07-19T17:58:45.523Z,37.10
2018-07-19T18:03:38.764Z,37.30
2018-07-19T18:08:32.021Z,37.40
2018-07-19T18:13:25.249Z,37.40
2018-07-19T18:18:18.667Z,37.70
2018-07-19T18:23:11.956Z,38.20
2018-07-19T18:28:05.650Z,38.10
2018-07-19T18:32:58.901Z,38.90
2018-07-19T18:37:52.133Z,38.80
2018-07-19T18:47:38.575Z,39.20
2018-07-19T18:52:31.818Z,40.00
2018-07-19T18:57:25.041Z,40.80
2018-07-19T19:02:18.279Z,41.10
2018-07-19T19:07:11.504Z,41.50
2018-07-19T19:12:04.802Z,41.70
2018-07-19T19:16:58.067Z,42.10
2018-07-19T19:21:51.436Z,42.40
2018-07-19T19:26:44.668Z,43.30
2018-07-19T19:31:37.921Z,44.00
2018-07-19T19:36:31.469Z,44.60
2018-07-19T19:41:24.723Z,45.20
2018-07-19T19:51:11.253Z,47.30
2018-07-19T19:56:04.525Z,49.20
2018-07-19T20:00:57.888Z,49.00
2018-07-19T20:05:51.219Z,49.80
2018-07-19T20:10:44.466Z,51.10
2018-07-19T20:15:37.727Z,52.50
2018-07-19T20:20:31.025Z,53.90
2018-07-19T20:30:17.498Z,56.00
2018-07-19T20:35:10.742Z,57.20
2018-07-19T20:44:57.282Z,58.90
2018-07-19T20:49:50.542Z,58.90
2018-07-19T20:54:43.758Z,59.30
2018-07-19T20:59:36.989Z,60.00
2018-07-19T21:04:30.505Z,60.40
2018-07-19T21:09:23.715Z,60.80
2018-07-19T21:14:16.972Z,61.20
2018-07-19T21:19:10.215Z,62.00
2018-07-19T21:24:03.433Z,62.70
2018-07-19T21:28:56.726Z,63.30
2018-07-19T21:33:49.963Z,63.70
2018-07-19T21:38:43.179Z,63.60
2018-07-19T21:43:36.417Z,64.50
2018-07-19T21:48:29.645Z,65.10
2018-07-19T21:53:22.921Z,66.10
2018-07-19T21:58:16.190Z,65.90
2018-07-19T22:03:09.473Z,66.40
2018-07-19T22:08:03.672Z,67.00
2018-07-19T22:12:56.926Z,67.40
2018-07-19T22:17:50.157Z,67.90
2018-07-19T22:22:43.451Z,68.20
2018-07-19T22:27:36.719Z,68.30
2018-07-19T22:32:30.354Z,68.90
2018-07-19T22:37:24.713Z,69.40
2018-07-19T22:42:17.967Z,70.20
2018-07-19T22:47:11.226Z,70.20
2018-07-19T22:56:57.667Z,71.00
2018-07-19T23:11:38.179Z,71.90
2018-07-19T23:16:31.482Z,72.20
2018-07-19T23:26:17.876Z,72.90
2018-07-19T23:31:11.152Z,73.40
2018-07-19T23:36:08.475Z,73.80
2018-07-19T23:41:04.592Z,73.90
2018-07-19T23:46:08.316Z,74.00
2018-07-19T23:51:01.560Z,74.50
2018-07-19T23:55:54.799Z,74.70
